sensor_id;sensor_type;location;lat;lon;timestamp;temperature;humidity
2579;DHT22;1299;48.282;14.398;2023-06-10T00:00:51;16.70;99.90
2579;DHT22;1299;48.282;14.398;2023-06-10T00:03:18;16.70;99.90
2579;DHT22;1299;48.282;14.398;2023-06-10T00:05:45;16.60;99.90
2579;DHT22;1299;48.282;14.398;2023-06-10T00:08:12;16.60;99.90
2579;DHT22;1299;48.282;14.398;2023-06-10T00:10:45;16.50;99.90
2579;DHT22;1299;48.282;14.398;2023-06-10T00:13:12;16.50;99.90
2579;DHT22;1299;48.282;14.398;2023-06-10T00:15:39;16.50;99.90
2579;DHT22;1299;48.282;14.398;2023-06-10T00:18:07;16.60;99.90
2579;DHT22;1299;48.282;14.398;2023-06-10T00:20:35;16.60;99.90
2579;DHT22;1299;48.282;14.398;2023-06-10T00:23:04;16.50;99.90
2579;DHT22;1299;48.282;14.398;2023-06-10T00:25:34;16.50;99.90
2579;DHT22;1299;48.282;14.398;2023-06-10T00:28:01;16.50;99.90
2579;DHT22;1299;48.282;14.398;2023-06-10T00:30:28;16.40;99.90
2579;DHT22;1299;48.282;14.398;2023-06-10T00:32:55;16.50;99.90
2579;DHT22;1299;48.282;14.398;2023-06-10T00:35:23;16.40;99.90
2579;DHT22;1299;48.282;14.398;2023-06-10T00:37:50;16.50;99.90
2579;DHT22;1299;48.282;14.398;2023-06-10T00:40:17;16.40;99.90
2579;DHT22;1299;48.282;14.398;2023-06-10T00:42:44;16.30;99.90
2579;DHT22;1299;48.282;14.398;2023-06-10T00:45:11;16.30;99.90
2579;DHT22;1299;48.282;14.398;2023-06-10T00:47:39;16.20;99.90
2579;DHT22;1299;48.282;14.398;2023-06-10T00:50:07;16.20;99.90
2579;DHT22;1299;48.282;14.398;2023-06-10T00:52:35;16.20;99.90
2579;DHT22;1299;48.282;14.398;2023-06-10T00:55:03;16.20;99.90
2579;DHT22;1299;48.282;14.398;2023-06-10T00:57:30;16.20;99.90
2579;DHT22;1299;48.282;14.398;2023-06-10T00:59:58;16.20;99.90
2579;DHT22;1299;48.282;14.398;2023-06-10T01:02:25;16.20;99.90
2579;DHT22;1299;48.282;14.398;2023-06-10T01:04:52;16.20;99.90
2579;DHT22;1299;48.282;14.398;2023-06-10T01:07:23;16.20;99.90
2579;DHT22;1299;48.282;14.398;2023-06-10T01:09:55;16.20;99.90
2579;DHT22;1299;48.282;14.398;2023-06-10T01:12:31;16.20;99.90
2579;DHT22;1299;48.282;14.398;2023-06-10T01:15:00;16.20;99.90
2579;DHT22;1299;48.282;14.398;2023-06-10T01:17:29;16.20;99.90
2579;DHT22;1299;48.282;14.398;2023-06-10T01:19:57;16.20;99.90
2579;DHT22;1299;48.282;14.398;2023-06-10T01:22:27;16.20;99.90
2579;DHT22;1299;48.282;14.398;2023-06-10T01:24:58;16.20;99.90
2579;DHT22;1299;48.282;14.398;2023-06-10T01:27:30;16.20;99.90
2579;DHT22;1299;48.282;14.398;2023-06-10T01:30:02;16.20;99.90
2579;DHT22;1299;48.282;14.398;2023-06-10T01:32:34;16.20;99.90
2579;DHT22;1299;48.282;14.398;2023-06-10T01:35:05;16.20;99.90
2579;DHT22;1299;48.282;14.398;2023-06-10T01:37:36;16.20;99.90
2579;DHT22;1299;48.282;14.398;2023-06-10T01:40:08;16.20;99.90
2579;DHT22;1299;48.282;14.398;2023-06-10T01:42:36;16.10;99.90
2579;DHT22;1299;48.282;14.398;2023-06-10T01:45:03;16.10;99.90
2579;DHT22;1299;48.282;14.398;2023-06-10T01:47:31;16.20;99.90
2579;DHT22;1299;48.282;14.398;2023-06-10T01:49:58;16.20;99.90
2579;DHT22;1299;48.282;14.398;2023-06-10T01:52:25;16.20;99.90
2579;DHT22;1299;48.282;14.398;2023-06-10T01:54:53;16.20;99.90
2579;DHT22;1299;48.282;14.398;2023-06-10T01:57:21;16.20;99.90
2579;DHT22;1299;48.282;14.398;2023-06-10T01:59:48;16.20;99.90
2579;DHT22;1299;48.282;14.398;2023-06-10T02:02:15;16.20;99.90
2579;DHT22;1299;48.282;14.398;2023-06-10T02:04:42;16.00;99.90
2579;DHT22;1299;48.282;14.398;2023-06-10T02:07:09;16.10;99.90
2579;DHT22;1299;48.282;14.398;2023-06-10T02:09:37;16.20;99.90
2579;DHT22;1299;48.282;14.398;2023-06-10T02:12:07;16.20;99.90
2579;DHT22;1299;48.282;14.398;2023-06-10T02:14:34;16.10;99.90
2579;DHT22;1299;48.282;14.398;2023-06-10T02:17:01;16.00;99.90
2579;DHT22;1299;48.282;14.398;2023-06-10T02:19:30;16.00;99.90
2579;DHT22;1299;48.282;14.398;2023-06-10T02:21:57;16.10;99.90
2579;DHT22;1299;48.282;14.398;2023-06-10T02:24:24;16.10;99.90
2579;DHT22;1299;48.282;14.398;2023-06-10T02:26:51;16.10;99.90
2579;DHT22;1299;48.282;14.398;2023-06-10T02:29:19;16.10;99.90
2579;DHT22;1299;48.282;14.398;2023-06-10T02:31:47;16.00;99.90
2579;DHT22;1299;48.282;14.398;2023-06-10T02:34:14;16.00;99.90
2579;DHT22;1299;48.282;14.398;2023-06-10T02:36:41;16.00;99.90
2579;DHT22;1299;48.282;14.398;2023-06-10T02:39:08;16.00;99.90
2579;DHT22;1299;48.282;14.398;2023-06-10T02:41:35;16.00;99.90
2579;DHT22;1299;48.282;14.398;2023-06-10T02:44:03;16.00;99.90
2579;DHT22;1299;48.282;14.398;2023-06-10T02:46:32;16.00;99.90
2579;DHT22;1299;48.282;14.398;2023-06-10T02:48:59;15.90;99.90
2579;DHT22;1299;48.282;14.398;2023-06-10T02:51:27;15.90;99.90
2579;DHT22;1299;48.282;14.398;2023-06-10T02:53:54;15.80;99.90
2579;DHT22;1299;48.282;14.398;2023-06-10T02:56:22;15.70;99.90
2579;DHT22;1299;48.282;14.398;2023-06-10T02:58:49;15.70;99.90
2579;DHT22;1299;48.282;14.398;2023-06-10T03:01:17;15.70;99.90
2579;DHT22;1299;48.282;14.398;2023-06-10T03:03:46;15.70;99.90
2579;DHT22;1299;48.282;14.398;2023-06-10T03:06:13;15.80;99.90
2579;DHT22;1299;48.282;14.398;2023-06-10T03:08:40;15.80;99.90
2579;DHT22;1299;48.282;14.398;2023-06-10T03:11:07;15.80;99.90
2579;DHT22;1299;48.282;14.398;2023-06-10T03:13:34;15.80;99.90
2579;DHT22;1299;48.282;14.398;2023-06-10T03:16:01;15.70;99.90
2579;DHT22;1299;48.282;14.398;2023-06-10T03:18:28;15.70;99.90
2579;DHT22;1299;48.282;14.398;2023-06-10T03:20:57;15.70;99.90
2579;DHT22;1299;48.282;14.398;2023-06-10T03:23:24;15.70;99.90
2579;DHT22;1299;48.282;14.398;2023-06-10T03:25:52;15.70;99.90
2579;DHT22;1299;48.282;14.398;2023-06-10T03:28:20;15.70;99.90
2579;DHT22;1299;48.282;14.398;2023-06-10T03:30:47;15.60;99.90
2579;DHT22;1299;48.282;14.398;2023-06-10T03:33:14;15.70;99.90
2579;DHT22;1299;48.282;14.398;2023-06-10T03:35:42;15.70;99.90
2579;DHT22;1299;48.282;14.398;2023-06-10T03:38:10;15.70;99.90
2579;DHT22;1299;48.282;14.398;2023-06-10T03:40:37;15.80;99.90
2579;DHT22;1299;48.282;14.398;2023-06-10T03:43:04;15.80;99.90
2579;DHT22;1299;48.282;14.398;2023-06-10T03:45:31;15.70;99.90
2579;DHT22;1299;48.282;14.398;2023-06-10T03:47:58;15.70;99.90
2579;DHT22;1299;48.282;14.398;2023-06-10T03:50:25;15.70;99.90
2579;DHT22;1299;48.282;14.398;2023-06-10T03:52:52;15.70;99.90
2579;DHT22;1299;48.282;14.398;2023-06-10T03:55:21;15.70;99.90
2579;DHT22;1299;48.282;14.398;2023-06-10T03:57:49;15.80;99.90
2579;DHT22;1299;48.282;14.398;2023-06-10T04:00:19;15.80;99.90
2579;DHT22;1299;48.282;14.398;2023-06-10T04:02:47;15.70;99.90
2579;DHT22;1299;48.282;14.398;2023-06-10T04:05:18;15.80;99.90
2579;DHT22;1299;48.282;14.398;2023-06-10T04:07:47;15.90;99.90
2579;DHT22;1299;48.282;14.398;2023-06-10T04:10:15;16.10;99.90
2579;DHT22;1299;48.282;14.398;2023-06-10T04:12:44;16.10;99.90
2579;DHT22;1299;48.282;14.398;2023-06-10T04:15:11;16.20;99.90
2579;DHT22;1299;48.282;14.398;2023-06-10T04:17:38;16.30;99.90
2579;DHT22;1299;48.282;14.398;2023-06-10T04:20:07;16.30;99.90
2579;DHT22;1299;48.282;14.398;2023-06-10T04:22:34;16.50;99.90
2579;DHT22;1299;48.282;14.398;2023-06-10T04:25:02;16.60;99.90
2579;DHT22;1299;48.282;14.398;2023-06-10T04:27:30;16.50;99.90
2579;DHT22;1299;48.282;14.398;2023-06-10T04:29:58;16.60;99.90
2579;DHT22;1299;48.282;14.398;2023-06-10T04:32:25;16.70;99.90
2579;DHT22;1299;48.282;14.398;2023-06-10T04:34:52;16.70;99.90
2579;DHT22;1299;48.282;14.398;2023-06-10T04:37:19;16.80;99.90
2579;DHT22;1299;48.282;14.398;2023-06-10T04:39:46;16.90;99.90
2579;DHT22;1299;48.282;14.398;2023-06-10T04:42:13;16.90;99.90
2579;DHT22;1299;48.282;14.398;2023-06-10T04:44:40;16.90;99.90
2579;DHT22;1299;48.282;14.398;2023-06-10T04:47:09;17.00;99.90
2579;DHT22;1299;48.282;14.398;2023-06-10T04:49:36;17.10;99.90
2579;DHT22;1299;48.282;14.398;2023-06-10T04:52:04;17.30;99.90
2579;DHT22;1299;48.282;14.398;2023-06-10T04:54:31;17.10;99.90
2579;DHT22;1299;48.282;14.398;2023-06-10T04:56:58;17.40;99.90
2579;DHT22;1299;48.282;14.398;2023-06-10T04:59:26;17.60;99.90
2579;DHT22;1299;48.282;14.398;2023-06-10T05:01:53;17.40;99.90
2579;DHT22;1299;48.282;14.398;2023-06-10T05:04:22;17.40;99.90
2579;DHT22;1299;48.282;14.398;2023-06-10T05:06:49;17.60;99.90
2579;DHT22;1299;48.282;14.398;2023-06-10T05:09:16;17.50;99.90
2579;DHT22;1299;48.282;14.398;2023-06-10T05:11:43;17.80;99.90
2579;DHT22;1299;48.282;14.398;2023-06-10T05:14:10;18.10;99.90
2579;DHT22;1299;48.282;14.398;2023-06-10T05:16:37;18.00;99.90
2579;DHT22;1299;48.282;14.398;2023-06-10T05:19:04;18.10;99.90
2579;DHT22;1299;48.282;14.398;2023-06-10T05:21:32;18.20;99.90
2579;DHT22;1299;48.282;14.398;2023-06-10T05:23:59;18.40;99.90
2579;DHT22;1299;48.282;14.398;2023-06-10T05:26:26;18.50;99.90
2579;DHT22;1299;48.282;14.398;2023-06-10T05:28:54;18.70;99.90
2579;DHT22;1299;48.282;14.398;2023-06-10T05:31:22;18.70;99.90
2579;DHT22;1299;48.282;14.398;2023-06-10T05:33:49;18.80;99.90
2579;DHT22;1299;48.282;14.398;2023-06-10T05:36:16;18.80;99.90
2579;DHT22;1299;48.282;14.398;2023-06-10T05:38:44;18.90;99.90
2579;DHT22;1299;48.282;14.398;2023-06-10T05:41:11;18.90;99.90
2579;DHT22;1299;48.282;14.398;2023-06-10T05:43:38;19.00;99.90
2579;DHT22;1299;48.282;14.398;2023-06-10T05:46:05;19.10;99.90
2579;DHT22;1299;48.282;14.398;2023-06-10T05:48:32;19.20;99.90
2579;DHT22;1299;48.282;14.398;2023-06-10T05:50:59;19.20;99.90
2579;DHT22;1299;48.282;14.398;2023-06-10T05:53:26;18.80;99.90
2579;DHT22;1299;48.282;14.398;2023-06-10T05:55:56;18.90;99.90
2579;DHT22;1299;48.282;14.398;2023-06-10T05:58:24;19.10;99.90
2579;DHT22;1299;48.282;14.398;2023-06-10T06:00:51;19.30;99.90
2579;DHT22;1299;48.282;14.398;2023-06-10T06:03:18;19.40;99.90
2579;DHT22;1299;48.282;14.398;2023-06-10T06:05:45;19.50;99.90
2579;DHT22;1299;48.282;14.398;2023-06-10T06:08:12;19.60;99.90
2579;DHT22;1299;48.282;14.398;2023-06-10T06:10:43;19.60;99.90
2579;DHT22;1299;48.282;14.398;2023-06-10T06:13:11;19.60;99.90
2579;DHT22;1299;48.282;14.398;2023-06-10T06:15:38;19.70;99.90
2579;DHT22;1299;48.282;14.398;2023-06-10T06:18:05;19.90;99.90
2579;DHT22;1299;48.282;14.398;2023-06-10T06:20:32;20.00;99.90
2579;DHT22;1299;48.282;14.398;2023-06-10T06:22:59;19.90;99.90
2579;DHT22;1299;48.282;14.398;2023-06-10T06:25:26;20.00;99.90
2579;DHT22;1299;48.282;14.398;2023-06-10T06:27:53;20.20;99.90
2579;DHT22;1299;48.282;14.398;2023-06-10T06:30:21;20.40;99.90
2579;DHT22;1299;48.282;14.398;2023-06-10T06:32:48;20.30;99.90
2579;DHT22;1299;48.282;14.398;2023-06-10T06:35:15;20.40;99.90
2579;DHT22;1299;48.282;14.398;2023-06-10T06:37:42;20.10;99.90
2579;DHT22;1299;48.282;14.398;2023-06-10T06:40:10;20.30;99.90
2579;DHT22;1299;48.282;14.398;2023-06-10T06:42:37;20.60;99.90
2579;DHT22;1299;48.282;14.398;2023-06-10T06:45:05;20.70;99.90
2579;DHT22;1299;48.282;14.398;2023-06-10T06:47:33;20.60;99.90
2579;DHT22;1299;48.282;14.398;2023-06-10T06:50:00;20.70;99.90
2579;DHT22;1299;48.282;14.398;2023-06-10T06:52:28;20.70;99.90
2579;DHT22;1299;48.282;14.398;2023-06-10T06:54:55;20.50;99.90
2579;DHT22;1299;48.282;14.398;2023-06-10T06:57:22;20.40;99.90
2579;DHT22;1299;48.282;14.398;2023-06-10T06:59:49;20.60;99.90
2579;DHT22;1299;48.282;14.398;2023-06-10T07:02:16;20.80;99.90
2579;DHT22;1299;48.282;14.398;2023-06-10T07:04:45;20.80;99.90
2579;DHT22;1299;48.282;14.398;2023-06-10T07:07:14;21.00;99.90
2579;DHT22;1299;48.282;14.398;2023-06-10T07:09:41;21.20;99.90
2579;DHT22;1299;48.282;14.398;2023-06-10T07:12:09;21.30;99.90
2579;DHT22;1299;48.282;14.398;2023-06-10T07:14:36;21.40;99.90
2579;DHT22;1299;48.282;14.398;2023-06-10T07:17:03;21.40;99.90
2579;DHT22;1299;48.282;14.398;2023-06-10T07:19:30;21.70;99.90
2579;DHT22;1299;48.282;14.398;2023-06-10T07:21:59;21.80;99.90
2579;DHT22;1299;48.282;14.398;2023-06-10T07:24:26;21.90;99.90
2579;DHT22;1299;48.282;14.398;2023-06-10T07:26:53;21.90;99.90
2579;DHT22;1299;48.282;14.398;2023-06-10T07:29:20;22.00;99.90
2579;DHT22;1299;48.282;14.398;2023-06-10T07:31:47;22.00;99.90
2579;DHT22;1299;48.282;14.398;2023-06-10T07:34:14;21.90;99.90
2579;DHT22;1299;48.282;14.398;2023-06-10T07:36:41;21.50;99.90
2579;DHT22;1299;48.282;14.398;2023-06-10T07:39:09;20.70;99.90
2579;DHT22;1299;48.282;14.398;2023-06-10T07:41:36;20.90;99.90
2579;DHT22;1299;48.282;14.398;2023-06-10T07:44:03;21.30;99.90
2579;DHT22;1299;48.282;14.398;2023-06-10T07:46:30;21.20;99.90
2579;DHT22;1299;48.282;14.398;2023-06-10T07:48:57;21.40;99.90
2579;DHT22;1299;48.282;14.398;2023-06-10T07:51:24;22.20;99.90
2579;DHT22;1299;48.282;14.398;2023-06-10T07:53:51;22.70;99.90
2579;DHT22;1299;48.282;14.398;2023-06-10T07:56:20;22.80;99.90
2579;DHT22;1299;48.282;14.398;2023-06-10T07:58:47;22.80;99.90
2579;DHT22;1299;48.282;14.398;2023-06-10T08:01:15;23.10;99.90
2579;DHT22;1299;48.282;14.398;2023-06-10T08:03:42;23.40;99.90
2579;DHT22;1299;48.282;14.398;2023-06-10T08:06:09;23.10;99.90
2579;DHT22;1299;48.282;14.398;2023-06-10T08:08:37;23.60;99.90
2579;DHT22;1299;48.282;14.398;2023-06-10T08:11:07;23.60;99.90
2579;DHT22;1299;48.282;14.398;2023-06-10T08:13:36;23.60;99.90
2579;DHT22;1299;48.282;14.398;2023-06-10T08:16:03;22.90;99.90
2579;DHT22;1299;48.282;14.398;2023-06-10T08:18:30;22.80;99.90
2579;DHT22;1299;48.282;14.398;2023-06-10T08:20:57;22.70;99.90
2579;DHT22;1299;48.282;14.398;2023-06-10T08:23:24;22.50;99.90
2579;DHT22;1299;48.282;14.398;2023-06-10T08:25:51;23.10;99.90
2579;DHT22;1299;48.282;14.398;2023-06-10T08:28:18;22.60;99.90
2579;DHT22;1299;48.282;14.398;2023-06-10T08:30:46;23.20;99.90
2579;DHT22;1299;48.282;14.398;2023-06-10T08:33:13;23.30;99.90
2579;DHT22;1299;48.282;14.398;2023-06-10T08:35:40;23.80;99.90
2579;DHT22;1299;48.282;14.398;2023-06-10T08:38:07;23.30;99.90
2579;DHT22;1299;48.282;14.398;2023-06-10T08:40:34;22.40;99.90
2579;DHT22;1299;48.282;14.398;2023-06-10T08:43:07;22.70;99.90
2579;DHT22;1299;48.282;14.398;2023-06-10T08:45:36;22.60;99.90
2579;DHT22;1299;48.282;14.398;2023-06-10T08:48:06;23.40;99.90
2579;DHT22;1299;48.282;14.398;2023-06-10T08:50:35;23.70;99.90
2579;DHT22;1299;48.282;14.398;2023-06-10T08:53:04;23.20;99.90
2579;DHT22;1299;48.282;14.398;2023-06-10T08:55:33;23.60;99.90
2579;DHT22;1299;48.282;14.398;2023-06-10T08:58:02;23.40;99.90
2579;DHT22;1299;48.282;14.398;2023-06-10T09:00:30;23.10;99.90
2579;DHT22;1299;48.282;14.398;2023-06-10T09:02:58;23.00;99.90
2579;DHT22;1299;48.282;14.398;2023-06-10T09:05:27;23.30;99.90
2579;DHT22;1299;48.282;14.398;2023-06-10T09:07:57;23.00;99.90
2579;DHT22;1299;48.282;14.398;2023-06-10T09:10:24;22.70;99.90
2579;DHT22;1299;48.282;14.398;2023-06-10T09:12:52;23.20;99.90
2579;DHT22;1299;48.282;14.398;2023-06-10T09:15:19;23.20;99.90
2579;DHT22;1299;48.282;14.398;2023-06-10T09:17:46;22.60;99.90
2579;DHT22;1299;48.282;14.398;2023-06-10T09:20:13;22.80;99.90
2579;DHT22;1299;48.282;14.398;2023-06-10T09:22:43;22.70;99.90
2579;DHT22;1299;48.282;14.398;2023-06-10T09:25:11;22.70;99.90
2579;DHT22;1299;48.282;14.398;2023-06-10T09:27:49;22.60;99.90
2579;DHT22;1299;48.282;14.398;2023-06-10T09:30:26;22.10;99.90
2579;DHT22;1299;48.282;14.398;2023-06-10T09:32:54;22.80;99.90
2579;DHT22;1299;48.282;14.398;2023-06-10T09:35:22;23.20;99.90
2579;DHT22;1299;48.282;14.398;2023-06-10T09:37:52;23.50;99.90
2579;DHT22;1299;48.282;14.398;2023-06-10T09:40:20;22.90;99.90
2579;DHT22;1299;48.282;14.398;2023-06-10T09:42:53;22.70;99.90
2579;DHT22;1299;48.282;14.398;2023-06-10T09:45:21;22.90;99.90
2579;DHT22;1299;48.282;14.398;2023-06-10T09:47:51;23.00;99.90
2579;DHT22;1299;48.282;14.398;2023-06-10T09:50:19;22.90;99.90
2579;DHT22;1299;48.282;14.398;2023-06-10T09:52:46;22.20;99.90
2579;DHT22;1299;48.282;14.398;2023-06-10T09:55:15;23.10;99.90
2579;DHT22;1299;48.282;14.398;2023-06-10T09:57:43;23.40;99.90
2579;DHT22;1299;48.282;14.398;2023-06-10T10:00:15;23.50;99.90
2579;DHT22;1299;48.282;14.398;2023-06-10T10:02:46;23.40;99.90
2579;DHT22;1299;48.282;14.398;2023-06-10T10:05:14;23.40;99.90
2579;DHT22;1299;48.282;14.398;2023-06-10T10:07:42;23.60;99.90
2579;DHT22;1299;48.282;14.398;2023-06-10T10:10:09;24.00;99.90
2579;DHT22;1299;48.282;14.398;2023-06-10T10:12:39;24.30;99.90
2579;DHT22;1299;48.282;14.398;2023-06-10T10:15:07;23.90;99.90
2579;DHT22;1299;48.282;14.398;2023-06-10T10:17:39;24.20;99.90
2579;DHT22;1299;48.282;14.398;2023-06-10T10:20:08;24.00;99.90
2579;DHT22;1299;48.282;14.398;2023-06-10T10:22:38;24.40;99.90
2579;DHT22;1299;48.282;14.398;2023-06-10T10:25:10;24.60;99.90
2579;DHT22;1299;48.282;14.398;2023-06-10T10:27:44;24.30;99.90
2579;DHT22;1299;48.282;14.398;2023-06-10T10:30:14;23.40;99.90
2579;DHT22;1299;48.282;14.398;2023-06-10T10:32:52;23.90;99.90
2579;DHT22;1299;48.282;14.398;2023-06-10T10:35:21;24.10;99.90
2579;DHT22;1299;48.282;14.398;2023-06-10T10:37:49;24.30;99.90
2579;DHT22;1299;48.282;14.398;2023-06-10T10:40:17;24.70;99.90
2579;DHT22;1299;48.282;14.398;2023-06-10T10:42:47;24.00;99.90
2579;DHT22;1299;48.282;14.398;2023-06-10T10:45:14;24.60;99.90
2579;DHT22;1299;48.282;14.398;2023-06-10T10:47:43;24.10;99.90
2579;DHT22;1299;48.282;14.398;2023-06-10T10:50:15;23.50;99.90
2579;DHT22;1299;48.282;14.398;2023-06-10T10:52:54;22.80;99.90
2579;DHT22;1299;48.282;14.398;2023-06-10T10:55:22;23.10;99.90
2579;DHT22;1299;48.282;14.398;2023-06-10T10:58:02;21.90;99.90
2579;DHT22;1299;48.282;14.398;2023-06-10T11:00:30;21.50;99.90
2579;DHT22;1299;48.282;14.398;2023-06-10T11:03:04;21.40;99.90
2579;DHT22;1299;48.282;14.398;2023-06-10T11:05:37;22.00;99.90
2579;DHT22;1299;48.282;14.398;2023-06-10T11:08:04;22.30;99.90
2579;DHT22;1299;48.282;14.398;2023-06-10T11:10:33;22.50;99.90
2579;DHT22;1299;48.282;14.398;2023-06-10T11:13:06;22.50;99.90
2579;DHT22;1299;48.282;14.398;2023-06-10T11:15:38;22.50;99.90
2579;DHT22;1299;48.282;14.398;2023-06-10T11:18:13;22.60;99.90
2579;DHT22;1299;48.282;14.398;2023-06-10T11:20:57;23.00;99.90
2579;DHT22;1299;48.282;14.398;2023-06-10T11:23:29;23.20;99.90
2579;DHT22;1299;48.282;14.398;2023-06-10T11:26:10;23.10;99.90
2579;DHT22;1299;48.282;14.398;2023-06-10T11:28:39;23.30;99.90
2579;DHT22;1299;48.282;14.398;2023-06-10T11:31:06;23.90;99.90
2579;DHT22;1299;48.282;14.398;2023-06-10T11:33:33;24.30;99.90
2579;DHT22;1299;48.282;14.398;2023-06-10T11:36:00;24.40;99.90
2579;DHT22;1299;48.282;14.398;2023-06-10T11:38:28;24.50;99.90
2579;DHT22;1299;48.282;14.398;2023-06-10T11:40:55;24.70;99.90
2579;DHT22;1299;48.282;14.398;2023-06-10T11:43:22;24.80;99.90
2579;DHT22;1299;48.282;14.398;2023-06-10T11:45:56;25.10;99.90
2579;DHT22;1299;48.282;14.398;2023-06-10T11:48:23;25.40;99.90
2579;DHT22;1299;48.282;14.398;2023-06-10T11:50:50;25.30;99.90
2579;DHT22;1299;48.282;14.398;2023-06-10T11:53:19;25.60;99.90
2579;DHT22;1299;48.282;14.398;2023-06-10T11:55:47;25.70;99.90
2579;DHT22;1299;48.282;14.398;2023-06-10T11:58:14;25.90;99.90
2579;DHT22;1299;48.282;14.398;2023-06-10T12:00:46;26.20;99.90
2579;DHT22;1299;48.282;14.398;2023-06-10T12:03:14;26.30;99.90
2579;DHT22;1299;48.282;14.398;2023-06-10T12:05:55;26.20;99.90
2579;DHT22;1299;48.282;14.398;2023-06-10T12:08:22;26.00;99.90
2579;DHT22;1299;48.282;14.398;2023-06-10T12:10:49;25.20;99.90
2579;DHT22;1299;48.282;14.398;2023-06-10T12:13:17;24.60;99.90
2579;DHT22;1299;48.282;14.398;2023-06-10T12:15:44;24.60;99.90
2579;DHT22;1299;48.282;14.398;2023-06-10T12:18:17;24.60;99.90
2579;DHT22;1299;48.282;14.398;2023-06-10T12:20:45;24.40;99.90
2579;DHT22;1299;48.282;14.398;2023-06-10T12:23:12;24.20;99.90
2579;DHT22;1299;48.282;14.398;2023-06-10T12:25:43;23.90;99.90
2579;DHT22;1299;48.282;14.398;2023-06-10T12:28:15;23.80;99.90
2579;DHT22;1299;48.282;14.398;2023-06-10T12:30:43;23.60;99.90
2579;DHT22;1299;48.282;14.398;2023-06-10T12:33:18;23.50;99.90
2579;DHT22;1299;48.282;14.398;2023-06-10T12:35:48;23.40;99.90
2579;DHT22;1299;48.282;14.398;2023-06-10T12:38:21;23.30;99.90
2579;DHT22;1299;48.282;14.398;2023-06-10T12:40:50;23.20;99.90
2579;DHT22;1299;48.282;14.398;2023-06-10T12:43:19;23.00;99.90
2579;DHT22;1299;48.282;14.398;2023-06-10T12:45:47;23.00;99.90
2579;DHT22;1299;48.282;14.398;2023-06-10T12:48:20;22.90;99.90
2579;DHT22;1299;48.282;14.398;2023-06-10T12:50:51;22.80;99.90
2579;DHT22;1299;48.282;14.398;2023-06-10T12:53:18;22.70;99.90
2579;DHT22;1299;48.282;14.398;2023-06-10T12:55:46;22.50;99.90
2579;DHT22;1299;48.282;14.398;2023-06-10T12:58:14;22.30;99.90
2579;DHT22;1299;48.282;14.398;2023-06-10T13:00:41;22.10;99.90
2579;DHT22;1299;48.282;14.398;2023-06-10T13:03:09;21.70;99.90
2579;DHT22;1299;48.282;14.398;2023-06-10T13:05:38;21.50;99.90
2579;DHT22;1299;48.282;14.398;2023-06-10T13:08:05;21.70;99.90
2579;DHT22;1299;48.282;14.398;2023-06-10T13:10:33;21.50;99.90
2579;DHT22;1299;48.282;14.398;2023-06-10T13:13:00;21.30;99.90
2579;DHT22;1299;48.282;14.398;2023-06-10T13:15:27;21.40;99.90
2579;DHT22;1299;48.282;14.398;2023-06-10T13:17:54;21.20;99.90
2579;DHT22;1299;48.282;14.398;2023-06-10T13:20:21;21.10;99.90
2579;DHT22;1299;48.282;14.398;2023-06-10T13:22:50;21.20;99.90
2579;DHT22;1299;48.282;14.398;2023-06-10T13:25:17;21.20;99.90
2579;DHT22;1299;48.282;14.398;2023-06-10T13:27:43;21.10;99.90
2579;DHT22;1299;48.282;14.398;2023-06-10T13:30:11;20.90;99.90
2579;DHT22;1299;48.282;14.398;2023-06-10T13:32:38;21.10;99.90
2579;DHT22;1299;48.282;14.398;2023-06-10T13:35:06;21.10;99.90
2579;DHT22;1299;48.282;14.398;2023-06-10T13:37:34;20.50;99.90
2579;DHT22;1299;48.282;14.398;2023-06-10T13:40:03;19.80;99.90
2579;DHT22;1299;48.282;14.398;2023-06-10T13:42:30;20.30;99.90
2579;DHT22;1299;48.282;14.398;2023-06-10T13:44:57;20.40;99.90
2579;DHT22;1299;48.282;14.398;2023-06-10T13:47:24;20.30;99.90
2579;DHT22;1299;48.282;14.398;2023-06-10T13:49:51;20.50;99.90
2579;DHT22;1299;48.282;14.398;2023-06-10T13:52:18;20.70;99.90
2579;DHT22;1299;48.282;14.398;2023-06-10T13:54:45;20.90;99.90
2579;DHT22;1299;48.282;14.398;2023-06-10T13:57:13;21.00;99.90
2579;DHT22;1299;48.282;14.398;2023-06-10T13:59:40;20.80;99.90
2579;DHT22;1299;48.282;14.398;2023-06-10T14:02:07;21.00;99.90
2579;DHT22;1299;48.282;14.398;2023-06-10T14:04:34;21.10;99.90
2579;DHT22;1299;48.282;14.398;2023-06-10T14:07:01;21.10;99.90
2579;DHT22;1299;48.282;14.398;2023-06-10T14:09:29;20.60;99.90
2579;DHT22;1299;48.282;14.398;2023-06-10T14:11:56;20.40;99.90
2579;DHT22;1299;48.282;14.398;2023-06-10T14:14:24;20.40;99.90
2579;DHT22;1299;48.282;14.398;2023-06-10T14:16:51;19.90;99.90
2579;DHT22;1299;48.282;14.398;2023-06-10T14:19:18;20.10;99.90
2579;DHT22;1299;48.282;14.398;2023-06-10T14:21:45;20.00;99.90
2579;DHT22;1299;48.282;14.398;2023-06-10T14:24:12;20.20;99.90
2579;DHT22;1299;48.282;14.398;2023-06-10T14:26:39;20.10;99.90
2579;DHT22;1299;48.282;14.398;2023-06-10T14:29:06;20.10;99.90
2579;DHT22;1299;48.282;14.398;2023-06-10T14:31:35;20.30;99.90
2579;DHT22;1299;48.282;14.398;2023-06-10T14:34:02;20.50;99.90
2579;DHT22;1299;48.282;14.398;2023-06-10T14:36:31;20.30;99.90
2579;DHT22;1299;48.282;14.398;2023-06-10T14:38:58;20.50;99.90
2579;DHT22;1299;48.282;14.398;2023-06-10T14:41:25;20.80;99.90
2579;DHT22;1299;48.282;14.398;2023-06-10T14:43:52;20.80;99.90
2579;DHT22;1299;48.282;14.398;2023-06-10T14:46:19;21.20;99.90
2579;DHT22;1299;48.282;14.398;2023-06-10T14:48:48;21.40;99.90
2579;DHT22;1299;48.282;14.398;2023-06-10T14:51:16;21.40;99.90
2579;DHT22;1299;48.282;14.398;2023-06-10T14:53:43;21.70;99.90
2579;DHT22;1299;48.282;14.398;2023-06-10T14:56:11;21.90;99.90
2579;DHT22;1299;48.282;14.398;2023-06-10T14:58:38;21.90;99.90
2579;DHT22;1299;48.282;14.398;2023-06-10T15:01:05;21.90;99.90
2579;DHT22;1299;48.282;14.398;2023-06-10T15:03:32;22.00;99.90
2579;DHT22;1299;48.282;14.398;2023-06-10T15:06:00;22.10;99.90
2579;DHT22;1299;48.282;14.398;2023-06-10T15:08:27;22.10;99.90
2579;DHT22;1299;48.282;14.398;2023-06-10T15:10:54;22.00;99.90
2579;DHT22;1299;48.282;14.398;2023-06-10T15:13:23;22.00;99.90
2579;DHT22;1299;48.282;14.398;2023-06-10T15:15:49;22.10;99.90
2579;DHT22;1299;48.282;14.398;2023-06-10T15:18:16;22.20;99.90
2579;DHT22;1299;48.282;14.398;2023-06-10T15:20:43;22.30;99.90
2579;DHT22;1299;48.282;14.398;2023-06-10T15:23:12;22.50;99.90
2579;DHT22;1299;48.282;14.398;2023-06-10T15:25:39;22.60;99.90
2579;DHT22;1299;48.282;14.398;2023-06-10T15:28:07;22.40;99.90
2579;DHT22;1299;48.282;14.398;2023-06-10T15:30:34;22.30;99.90
2579;DHT22;1299;48.282;14.398;2023-06-10T15:33:03;22.30;99.90
2579;DHT22;1299;48.282;14.398;2023-06-10T15:35:31;22.30;99.90
2579;DHT22;1299;48.282;14.398;2023-06-10T15:37:58;22.30;99.90
2579;DHT22;1299;48.282;14.398;2023-06-10T15:40:27;22.30;99.90
2579;DHT22;1299;48.282;14.398;2023-06-10T15:42:54;22.50;99.90
2579;DHT22;1299;48.282;14.398;2023-06-10T15:45:21;22.40;99.90
2579;DHT22;1299;48.282;14.398;2023-06-10T15:47:48;22.30;99.90
2579;DHT22;1299;48.282;14.398;2023-06-10T15:50:15;22.20;99.90